Aviation Digital Data Service (ADDS)

Output produced by METARs form (1933 UTC 31 July 2021)
found at http://www.aviationweather.gov/metar/data/
 
KSIF 311915Z AUTO 30004KT 7SM CLR 30/17 A2998 RMK AO2 T03000166